sensor_id;sensor_type;location;lat;lon;timestamp;P1;durP1;ratioP1;P2;durP2;ratioP2
54555;SDS011;57291;37.520;15.106;2023-07-31T00:02:08;8.70;;;4.05;;
54555;SDS011;57291;37.520;15.106;2023-07-31T00:04:35;12.52;;;4.40;;
54555;SDS011;57291;37.520;15.106;2023-07-31T00:07:02;17.45;;;4.72;;
54555;SDS011;57291;37.520;15.106;2023-07-31T00:09:31;10.70;;;3.75;;
54555;SDS011;57291;37.520;15.106;2023-07-31T00:11:58;9.77;;;4.20;;
54555;SDS011;57291;37.520;15.106;2023-07-31T00:14:25;16.02;;;4.78;;
54555;SDS011;57291;37.520;15.106;2023-07-31T00:16:52;11.90;;;4.93;;
54555;SDS011;57291;37.520;15.106;2023-07-31T00:19:19;7.97;;;4.72;;
54555;SDS011;57291;37.520;15.106;2023-07-31T00:21:47;8.85;;;4.55;;
54555;SDS011;57291;37.520;15.106;2023-07-31T00:24:14;11.93;;;4.20;;
54555;SDS011;57291;37.520;15.106;2023-07-31T00:26:41;7.65;;;5.18;;
54555;SDS011;57291;37.520;15.106;2023-07-31T00:29:08;9.52;;;4.57;;
54555;SDS011;57291;37.520;15.106;2023-07-31T00:31:36;9.60;;;4.28;;
54555;SDS011;57291;37.520;15.106;2023-07-31T00:34:03;11.63;;;5.05;;
54555;SDS011;57291;37.520;15.106;2023-07-31T00:36:33;9.93;;;4.80;;
54555;SDS011;57291;37.520;15.106;2023-07-31T00:39:00;11.60;;;4.28;;
54555;SDS011;57291;37.520;15.106;2023-07-31T00:41:27;7.90;;;4.80;;
54555;SDS011;57291;37.520;15.106;2023-07-31T00:43:55;11.55;;;4.10;;
54555;SDS011;57291;37.520;15.106;2023-07-31T00:46:22;12.75;;;4.78;;
54555;SDS011;57291;37.520;15.106;2023-07-31T00:48:49;9.48;;;4.85;;
54555;SDS011;57291;37.520;15.106;2023-07-31T00:51:17;9.45;;;4.45;;
54555;SDS011;57291;37.520;15.106;2023-07-31T00:53:44;8.88;;;4.32;;
54555;SDS011;57291;37.520;15.106;2023-07-31T00:56:12;9.70;;;4.40;;
54555;SDS011;57291;37.520;15.106;2023-07-31T00:58:39;9.73;;;4.50;;
54555;SDS011;57291;37.520;15.106;2023-07-31T01:01:07;8.00;;;4.03;;
54555;SDS011;57291;37.520;15.106;2023-07-31T01:03:34;11.75;;;4.68;;
54555;SDS011;57291;37.520;15.106;2023-07-31T01:11:33;12.77;;;4.75;;
54555;SDS011;57291;37.520;15.106;2023-07-31T01:14:05;10.15;;;3.88;;
54555;SDS011;57291;37.520;15.106;2023-07-31T01:16:32;8.98;;;4.13;;
54555;SDS011;57291;37.520;15.106;2023-07-31T01:18:59;7.60;;;3.70;;
54555;SDS011;57291;37.520;15.106;2023-07-31T01:21:36;10.57;;;4.30;;
54555;SDS011;57291;37.520;15.106;2023-07-31T01:27:19;8.00;;;3.75;;
54555;SDS011;57291;37.520;15.106;2023-07-31T01:32:24;6.40;;;3.83;;
54555;SDS011;57291;37.520;15.106;2023-07-31T01:34:55;6.35;;;3.38;;
54555;SDS011;57291;37.520;15.106;2023-07-31T01:37:29;7.38;;;3.95;;
54555;SDS011;57291;37.520;15.106;2023-07-31T01:39:56;6.70;;;3.80;;
54555;SDS011;57291;37.520;15.106;2023-07-31T01:42:24;9.48;;;3.88;;
54555;SDS011;57291;37.520;15.106;2023-07-31T01:44:51;12.70;;;3.90;;
54555;SDS011;57291;37.520;15.106;2023-07-31T01:47:18;7.63;;;3.97;;
54555;SDS011;57291;37.520;15.106;2023-07-31T01:49:46;8.82;;;4.20;;
54555;SDS011;57291;37.520;15.106;2023-07-31T01:52:13;8.80;;;4.25;;
54555;SDS011;57291;37.520;15.106;2023-07-31T01:54:41;11.30;;;4.18;;
54555;SDS011;57291;37.520;15.106;2023-07-31T01:57:08;9.82;;;3.92;;
54555;SDS011;57291;37.520;15.106;2023-07-31T01:59:35;11.25;;;4.22;;
54555;SDS011;57291;37.520;15.106;2023-07-31T02:02:02;13.93;;;4.38;;
54555;SDS011;57291;37.520;15.106;2023-07-31T02:04:30;17.10;;;4.75;;
54555;SDS011;57291;37.520;15.106;2023-07-31T02:06:57;11.30;;;4.05;;
54555;SDS011;57291;37.520;15.106;2023-07-31T02:09:24;13.13;;;4.10;;
54555;SDS011;57291;37.520;15.106;2023-07-31T02:11:51;11.07;;;4.40;;
54555;SDS011;57291;37.520;15.106;2023-07-31T02:14:18;6.57;;;4.00;;
54555;SDS011;57291;37.520;15.106;2023-07-31T02:16:45;9.68;;;3.92;;
54555;SDS011;57291;37.520;15.106;2023-07-31T02:19:13;10.98;;;4.22;;
54555;SDS011;57291;37.520;15.106;2023-07-31T02:21:41;7.35;;;3.85;;
54555;SDS011;57291;37.520;15.106;2023-07-31T02:24:08;7.38;;;4.10;;
54555;SDS011;57291;37.520;15.106;2023-07-31T02:26:35;9.88;;;4.00;;
54555;SDS011;57291;37.520;15.106;2023-07-31T02:29:03;8.35;;;4.18;;
54555;SDS011;57291;37.520;15.106;2023-07-31T02:31:30;9.82;;;4.32;;
54555;SDS011;57291;37.520;15.106;2023-07-31T02:33:57;11.38;;;4.53;;
54555;SDS011;57291;37.520;15.106;2023-07-31T02:36:25;9.48;;;4.15;;
54555;SDS011;57291;37.520;15.106;2023-07-31T02:38:52;9.57;;;4.20;;
54555;SDS011;57291;37.520;15.106;2023-07-31T02:41:19;10.25;;;4.40;;
54555;SDS011;57291;37.520;15.106;2023-07-31T02:43:46;10.57;;;4.10;;
54555;SDS011;57291;37.520;15.106;2023-07-31T02:46:13;8.80;;;4.07;;
54555;SDS011;57291;37.520;15.106;2023-07-31T02:48:41;7.10;;;4.07;;
54555;SDS011;57291;37.520;15.106;2023-07-31T02:51:08;10.73;;;4.22;;
54555;SDS011;57291;37.520;15.106;2023-07-31T02:53:35;8.82;;;4.00;;
54555;SDS011;57291;37.520;15.106;2023-07-31T02:56:02;8.30;;;4.05;;
54555;SDS011;57291;37.520;15.106;2023-07-31T02:58:29;7.07;;;3.85;;
54555;SDS011;57291;37.520;15.106;2023-07-31T03:00:58;11.05;;;3.97;;
54555;SDS011;57291;37.520;15.106;2023-07-31T03:03:25;6.25;;;3.60;;
54555;SDS011;57291;37.520;15.106;2023-07-31T03:05:53;7.95;;;3.97;;
54555;SDS011;57291;37.520;15.106;2023-07-31T03:08:20;8.55;;;3.83;;
54555;SDS011;57291;37.520;15.106;2023-07-31T03:10:48;8.50;;;4.55;;
54555;SDS011;57291;37.520;15.106;2023-07-31T03:13:15;7.38;;;3.75;;
54555;SDS011;57291;37.520;15.106;2023-07-31T03:15:43;10.32;;;4.00;;
54555;SDS011;57291;37.520;15.106;2023-07-31T03:18:10;6.07;;;3.80;;
54555;SDS011;57291;37.520;15.106;2023-07-31T03:20:37;6.57;;;3.53;;
54555;SDS011;57291;37.520;15.106;2023-07-31T03:23:09;7.32;;;3.80;;
54555;SDS011;57291;37.520;15.106;2023-07-31T03:25:37;7.22;;;3.40;;
54555;SDS011;57291;37.520;15.106;2023-07-31T03:28:04;10.45;;;3.38;;
54555;SDS011;57291;37.520;15.106;2023-07-31T03:30:31;7.35;;;3.65;;
54555;SDS011;57291;37.520;15.106;2023-07-31T03:32:58;6.63;;;3.22;;
54555;SDS011;57291;37.520;15.106;2023-07-31T03:35:26;9.48;;;3.42;;
54555;SDS011;57291;37.520;15.106;2023-07-31T03:37:54;8.35;;;4.05;;
54555;SDS011;57291;37.520;15.106;2023-07-31T03:40:22;9.15;;;5.13;;
54555;SDS011;57291;37.520;15.106;2023-07-31T03:42:49;6.60;;;4.50;;
54555;SDS011;57291;37.520;15.106;2023-07-31T03:45:16;6.90;;;4.10;;
54555;SDS011;57291;37.520;15.106;2023-07-31T03:47:44;9.90;;;4.28;;
54555;SDS011;57291;37.520;15.106;2023-07-31T03:50:12;11.15;;;3.95;;
54555;SDS011;57291;37.520;15.106;2023-07-31T03:52:39;8.48;;;3.88;;
54555;SDS011;57291;37.520;15.106;2023-07-31T03:55:07;7.38;;;3.85;;
54555;SDS011;57291;37.520;15.106;2023-07-31T03:57:35;7.15;;;3.85;;
54555;SDS011;57291;37.520;15.106;2023-07-31T04:00:02;6.43;;;3.55;;
54555;SDS011;57291;37.520;15.106;2023-07-31T04:02:37;10.55;;;3.70;;
54555;SDS011;57291;37.520;15.106;2023-07-31T04:05:04;9.35;;;4.20;;
54555;SDS011;57291;37.520;15.106;2023-07-31T04:07:32;12.05;;;3.85;;
54555;SDS011;57291;37.520;15.106;2023-07-31T04:09:59;7.55;;;3.72;;
54555;SDS011;57291;37.520;15.106;2023-07-31T04:12:26;8.65;;;3.83;;
54555;SDS011;57291;37.520;15.106;2023-07-31T04:14:54;11.30;;;4.28;;
54555;SDS011;57291;37.520;15.106;2023-07-31T04:17:21;10.75;;;4.25;;
54555;SDS011;57291;37.520;15.106;2023-07-31T04:19:48;11.40;;;4.20;;
54555;SDS011;57291;37.520;15.106;2023-07-31T04:22:15;10.65;;;4.15;;
54555;SDS011;57291;37.520;15.106;2023-07-31T04:24:42;8.55;;;4.38;;
54555;SDS011;57291;37.520;15.106;2023-07-31T04:27:09;6.78;;;4.53;;
54555;SDS011;57291;37.520;15.106;2023-07-31T04:29:37;11.20;;;4.88;;
54555;SDS011;57291;37.520;15.106;2023-07-31T04:32:06;10.10;;;4.43;;
54555;SDS011;57291;37.520;15.106;2023-07-31T04:34:33;9.15;;;4.88;;
54555;SDS011;57291;37.520;15.106;2023-07-31T04:37:00;8.32;;;4.28;;
54555;SDS011;57291;37.520;15.106;2023-07-31T04:39:28;8.75;;;4.63;;
54555;SDS011;57291;37.520;15.106;2023-07-31T04:41:55;16.30;;;4.63;;
54555;SDS011;57291;37.520;15.106;2023-07-31T04:44:22;8.52;;;4.20;;
54555;SDS011;57291;37.520;15.106;2023-07-31T04:46:49;9.20;;;4.13;;
54555;SDS011;57291;37.520;15.106;2023-07-31T04:49:16;12.05;;;4.68;;
54555;SDS011;57291;37.520;15.106;2023-07-31T04:51:43;9.15;;;4.13;;
54555;SDS011;57291;37.520;15.106;2023-07-31T04:54:11;9.80;;;4.00;;
54555;SDS011;57291;37.520;15.106;2023-07-31T04:56:39;8.68;;;3.60;;
54555;SDS011;57291;37.520;15.106;2023-07-31T04:59:06;8.10;;;3.80;;
54555;SDS011;57291;37.520;15.106;2023-07-31T05:01:34;10.18;;;3.95;;
54555;SDS011;57291;37.520;15.106;2023-07-31T05:04:01;12.32;;;3.92;;
54555;SDS011;57291;37.520;15.106;2023-07-31T05:06:28;9.38;;;3.60;;
54555;SDS011;57291;37.520;15.106;2023-07-31T05:08:56;8.32;;;4.00;;
54555;SDS011;57291;37.520;15.106;2023-07-31T05:11:23;11.75;;;4.00;;
54555;SDS011;57291;37.520;15.106;2023-07-31T05:13:50;11.07;;;4.07;;
54555;SDS011;57291;37.520;15.106;2023-07-31T05:16:17;13.57;;;3.80;;
54555;SDS011;57291;37.520;15.106;2023-07-31T05:18:44;11.80;;;3.80;;
54555;SDS011;57291;37.520;15.106;2023-07-31T05:21:12;10.23;;;3.60;;
54555;SDS011;57291;37.520;15.106;2023-07-31T05:23:39;12.68;;;3.78;;
54555;SDS011;57291;37.520;15.106;2023-07-31T05:26:06;10.15;;;3.78;;
54555;SDS011;57291;37.520;15.106;2023-07-31T05:28:34;8.07;;;3.75;;
54555;SDS011;57291;37.520;15.106;2023-07-31T05:31:03;8.85;;;3.83;;
54555;SDS011;57291;37.520;15.106;2023-07-31T05:33:31;7.78;;;4.22;;
54555;SDS011;57291;37.520;15.106;2023-07-31T05:35:58;8.43;;;3.22;;
54555;SDS011;57291;37.520;15.106;2023-07-31T05:38:25;7.57;;;3.50;;
54555;SDS011;57291;37.520;15.106;2023-07-31T05:40:52;7.72;;;3.17;;
54555;SDS011;57291;37.520;15.106;2023-07-31T05:43:19;11.57;;;3.30;;
54555;SDS011;57291;37.520;15.106;2023-07-31T05:45:47;9.63;;;3.55;;
54555;SDS011;57291;37.520;15.106;2023-07-31T05:48:14;10.18;;;3.85;;
54555;SDS011;57291;37.520;15.106;2023-07-31T05:50:42;9.10;;;3.65;;
54555;SDS011;57291;37.520;15.106;2023-07-31T05:53:10;12.65;;;3.78;;
54555;SDS011;57291;37.520;15.106;2023-07-31T05:55:37;8.50;;;3.53;;
54555;SDS011;57291;37.520;15.106;2023-07-31T05:58:04;6.30;;;3.35;;
54555;SDS011;57291;37.520;15.106;2023-07-31T06:00:31;8.65;;;3.45;;
54555;SDS011;57291;37.520;15.106;2023-07-31T06:02:59;7.90;;;3.35;;
54555;SDS011;57291;37.520;15.106;2023-07-31T06:05:26;11.05;;;3.80;;
54555;SDS011;57291;37.520;15.106;2023-07-31T06:07:55;7.22;;;3.40;;
54555;SDS011;57291;37.520;15.106;2023-07-31T06:10:23;6.07;;;3.15;;
54555;SDS011;57291;37.520;15.106;2023-07-31T06:12:50;10.05;;;3.58;;
54555;SDS011;57291;37.520;15.106;2023-07-31T06:15:18;9.48;;;3.38;;
54555;SDS011;57291;37.520;15.106;2023-07-31T06:17:46;7.05;;;3.20;;
54555;SDS011;57291;37.520;15.106;2023-07-31T06:20:13;8.25;;;3.10;;
54555;SDS011;57291;37.520;15.106;2023-07-31T06:22:40;6.72;;;2.90;;
54555;SDS011;57291;37.520;15.106;2023-07-31T06:25:07;8.63;;;3.22;;
54555;SDS011;57291;37.520;15.106;2023-07-31T06:27:38;9.23;;;3.38;;
54555;SDS011;57291;37.520;15.106;2023-07-31T06:30:05;8.80;;;2.88;;
54555;SDS011;57291;37.520;15.106;2023-07-31T06:32:33;7.50;;;3.22;;
54555;SDS011;57291;37.520;15.106;2023-07-31T06:35:00;6.20;;;2.72;;
54555;SDS011;57291;37.520;15.106;2023-07-31T06:37:28;7.10;;;2.83;;
54555;SDS011;57291;37.520;15.106;2023-07-31T06:39:55;6.90;;;3.17;;
54555;SDS011;57291;37.520;15.106;2023-07-31T06:42:22;7.80;;;3.05;;
54555;SDS011;57291;37.520;15.106;2023-07-31T06:44:49;11.15;;;3.63;;
54555;SDS011;57291;37.520;15.106;2023-07-31T06:47:16;13.40;;;3.80;;
54555;SDS011;57291;37.520;15.106;2023-07-31T06:49:43;11.43;;;3.65;;
54555;SDS011;57291;37.520;15.106;2023-07-31T06:52:11;11.60;;;4.07;;
54555;SDS011;57291;37.520;15.106;2023-07-31T06:54:38;9.00;;;4.20;;
54555;SDS011;57291;37.520;15.106;2023-07-31T06:57:05;16.70;;;3.92;;
54555;SDS011;57291;37.520;15.106;2023-07-31T06:59:32;8.55;;;3.88;;
54555;SDS011;57291;37.520;15.106;2023-07-31T07:01:59;12.32;;;4.10;;
54555;SDS011;57291;37.520;15.106;2023-07-31T07:04:29;7.85;;;3.65;;
54555;SDS011;57291;37.520;15.106;2023-07-31T07:06:56;10.10;;;3.67;;
54555;SDS011;57291;37.520;15.106;2023-07-31T07:09:23;11.73;;;3.42;;
54555;SDS011;57291;37.520;15.106;2023-07-31T07:11:51;11.13;;;2.92;;
54555;SDS011;57291;37.520;15.106;2023-07-31T07:17:58;7.15;;;3.30;;
54555;SDS011;57291;37.520;15.106;2023-07-31T07:20:26;7.75;;;3.53;;
54555;SDS011;57291;37.520;15.106;2023-07-31T07:22:53;10.80;;;3.72;;
54555;SDS011;57291;37.520;15.106;2023-07-31T07:25:20;9.15;;;3.70;;
54555;SDS011;57291;37.520;15.106;2023-07-31T07:27:48;13.88;;;4.03;;
54555;SDS011;57291;37.520;15.106;2023-07-31T07:30:15;10.25;;;3.58;;
54555;SDS011;57291;37.520;15.106;2023-07-31T07:32:42;7.25;;;3.53;;
54555;SDS011;57291;37.520;15.106;2023-07-31T07:35:10;9.30;;;3.72;;
54555;SDS011;57291;37.520;15.106;2023-07-31T07:37:37;7.53;;;3.35;;
54555;SDS011;57291;37.520;15.106;2023-07-31T07:40:05;11.32;;;3.95;;
54555;SDS011;57291;37.520;15.106;2023-07-31T07:42:32;8.13;;;3.97;;
54555;SDS011;57291;37.520;15.106;2023-07-31T07:44:59;10.15;;;4.10;;
54555;SDS011;57291;37.520;15.106;2023-07-31T07:47:27;14.55;;;4.47;;
54555;SDS011;57291;37.520;15.106;2023-07-31T07:49:54;9.15;;;3.58;;
54555;SDS011;57291;37.520;15.106;2023-07-31T07:52:22;7.43;;;3.25;;
54555;SDS011;57291;37.520;15.106;2023-07-31T07:54:49;10.00;;;4.10;;
54555;SDS011;57291;37.520;15.106;2023-07-31T07:57:16;8.43;;;3.55;;
54555;SDS011;57291;37.520;15.106;2023-07-31T07:59:43;12.48;;;3.92;;
54555;SDS011;57291;37.520;15.106;2023-07-31T08:02:11;10.38;;;3.88;;
54555;SDS011;57291;37.520;15.106;2023-07-31T08:04:38;12.25;;;3.22;;
54555;SDS011;57291;37.520;15.106;2023-07-31T08:07:05;4.88;;;2.75;;
54555;SDS011;57291;37.520;15.106;2023-07-31T08:09:32;9.90;;;3.10;;
54555;SDS011;57291;37.520;15.106;2023-07-31T08:11:59;9.82;;;3.60;;
54555;SDS011;57291;37.520;15.106;2023-07-31T08:14:30;6.60;;;2.63;;
54555;SDS011;57291;37.520;15.106;2023-07-31T08:16:58;6.55;;;3.03;;
54555;SDS011;57291;37.520;15.106;2023-07-31T08:19:26;5.90;;;3.10;;
54555;SDS011;57291;37.520;15.106;2023-07-31T08:21:54;9.07;;;3.25;;
54555;SDS011;57291;37.520;15.106;2023-07-31T08:24:24;8.00;;;2.90;;
54555;SDS011;57291;37.520;15.106;2023-07-31T08:26:51;6.00;;;3.22;;
54555;SDS011;57291;37.520;15.106;2023-07-31T08:29:18;6.43;;;3.03;;
54555;SDS011;57291;37.520;15.106;2023-07-31T08:31:45;7.20;;;3.05;;
54555;SDS011;57291;37.520;15.106;2023-07-31T08:34:12;6.97;;;2.92;;
54555;SDS011;57291;37.520;15.106;2023-07-31T08:36:39;5.38;;;3.10;;
54555;SDS011;57291;37.520;15.106;2023-07-31T08:39:07;7.78;;;2.92;;
54555;SDS011;57291;37.520;15.106;2023-07-31T08:41:38;8.68;;;3.22;;
54555;SDS011;57291;37.520;15.106;2023-07-31T08:44:08;8.90;;;3.40;;
54555;SDS011;57291;37.520;15.106;2023-07-31T08:46:38;5.75;;;3.03;;
54555;SDS011;57291;37.520;15.106;2023-07-31T08:49:07;4.50;;;2.92;;
54555;SDS011;57291;37.520;15.106;2023-07-31T08:51:36;5.88;;;3.13;;
54555;SDS011;57291;37.520;15.106;2023-07-31T08:54:03;6.68;;;2.92;;
54555;SDS011;57291;37.520;15.106;2023-07-31T08:56:31;8.35;;;3.60;;
54555;SDS011;57291;37.520;15.106;2023-07-31T08:59:02;9.18;;;3.15;;
54555;SDS011;57291;37.520;15.106;2023-07-31T09:01:31;7.80;;;3.20;;
54555;SDS011;57291;37.520;15.106;2023-07-31T09:04:05;6.20;;;3.20;;
54555;SDS011;57291;37.520;15.106;2023-07-31T09:06:34;7.72;;;3.40;;
54555;SDS011;57291;37.520;15.106;2023-07-31T09:09:02;8.82;;;3.22;;
54555;SDS011;57291;37.520;15.106;2023-07-31T09:11:29;7.22;;;3.08;;
54555;SDS011;57291;37.520;15.106;2023-07-31T09:13:57;8.05;;;3.50;;
54555;SDS011;57291;37.520;15.106;2023-07-31T09:16:28;6.20;;;3.20;;
54555;SDS011;57291;37.520;15.106;2023-07-31T09:18:59;6.25;;;3.13;;
54555;SDS011;57291;37.520;15.106;2023-07-31T09:21:28;8.98;;;3.63;;
54555;SDS011;57291;37.520;15.106;2023-07-31T09:23:56;7.30;;;3.58;;
54555;SDS011;57291;37.520;15.106;2023-07-31T09:26:34;5.93;;;3.13;;
54555;SDS011;57291;37.520;15.106;2023-07-31T09:29:04;6.95;;;3.50;;
54555;SDS011;57291;37.520;15.106;2023-07-31T09:31:39;8.65;;;3.83;;
54555;SDS011;57291;37.520;15.106;2023-07-31T09:34:10;7.55;;;3.33;;
54555;SDS011;57291;37.520;15.106;2023-07-31T09:36:48;7.63;;;3.60;;
54555;SDS011;57291;37.520;15.106;2023-07-31T09:39:17;7.25;;;3.67;;
54555;SDS011;57291;37.520;15.106;2023-07-31T09:41:47;9.23;;;3.95;;
54555;SDS011;57291;37.520;15.106;2023-07-31T09:44:20;10.07;;;4.32;;
54555;SDS011;57291;37.520;15.106;2023-07-31T09:46:48;9.48;;;4.43;;
54555;SDS011;57291;37.520;15.106;2023-07-31T09:49:16;6.38;;;3.80;;
54555;SDS011;57291;37.520;15.106;2023-07-31T09:51:43;8.70;;;4.07;;
54555;SDS011;57291;37.520;15.106;2023-07-31T09:54:11;6.05;;;3.83;;
54555;SDS011;57291;37.520;15.106;2023-07-31T09:56:41;9.55;;;4.30;;
54555;SDS011;57291;37.520;15.106;2023-07-31T09:59:13;15.80;;;4.13;;
54555;SDS011;57291;37.520;15.106;2023-07-31T10:01:49;9.52;;;4.10;;
54555;SDS011;57291;37.520;15.106;2023-07-31T10:04:17;7.78;;;4.35;;
54555;SDS011;57291;37.520;15.106;2023-07-31T10:06:47;9.85;;;4.10;;
54555;SDS011;57291;37.520;15.106;2023-07-31T10:09:18;13.98;;;4.90;;
54555;SDS011;57291;37.520;15.106;2023-07-31T10:11:51;13.13;;;5.03;;
54555;SDS011;57291;37.520;15.106;2023-07-31T10:14:22;10.88;;;4.68;;
54555;SDS011;57291;37.520;15.106;2023-07-31T10:16:51;9.65;;;4.60;;
54555;SDS011;57291;37.520;15.106;2023-07-31T10:19:19;9.35;;;4.32;;
54555;SDS011;57291;37.520;15.106;2023-07-31T10:21:48;11.52;;;4.55;;
54555;SDS011;57291;37.520;15.106;2023-07-31T10:24:16;11.70;;;4.82;;
54555;SDS011;57291;37.520;15.106;2023-07-31T10:26:44;8.25;;;4.78;;
54555;SDS011;57291;37.520;15.106;2023-07-31T10:29:14;14.18;;;5.18;;
54555;SDS011;57291;37.520;15.106;2023-07-31T10:31:44;8.23;;;3.72;;
54555;SDS011;57291;37.520;15.106;2023-07-31T10:34:13;6.53;;;3.92;;
54555;SDS011;57291;37.520;15.106;2023-07-31T10:36:41;8.80;;;3.88;;
54555;SDS011;57291;37.520;15.106;2023-07-31T10:42:13;8.13;;;3.55;;
54555;SDS011;57291;37.520;15.106;2023-07-31T10:44:44;8.05;;;4.13;;
54555;SDS011;57291;37.520;15.106;2023-07-31T10:47:16;14.55;;;4.25;;
54555;SDS011;57291;37.520;15.106;2023-07-31T10:49:45;9.80;;;3.50;;
54555;SDS011;57291;37.520;15.106;2023-07-31T10:52:13;7.82;;;3.42;;
54555;SDS011;57291;37.520;15.106;2023-07-31T10:54:45;7.50;;;3.50;;
54555;SDS011;57291;37.520;15.106;2023-07-31T10:57:20;8.85;;;3.40;;
54555;SDS011;57291;37.520;15.106;2023-07-31T10:59:48;6.80;;;3.00;;
54555;SDS011;57291;37.520;15.106;2023-07-31T11:02:24;10.77;;;3.42;;
54555;SDS011;57291;37.520;15.106;2023-07-31T11:05:27;6.43;;;2.90;;
54555;SDS011;57291;37.520;15.106;2023-07-31T11:07:49;7.38;;;3.15;;
54555;SDS011;57291;37.520;15.106;2023-07-31T11:10:17;10.27;;;3.00;;
54555;SDS011;57291;37.520;15.106;2023-07-31T11:12:45;8.65;;;3.55;;
54555;SDS011;57291;37.520;15.106;2023-07-31T11:15:13;7.53;;;2.80;;
54555;SDS011;57291;37.520;15.106;2023-07-31T11:17:40;6.88;;;3.00;;
54555;SDS011;57291;37.520;15.106;2023-07-31T11:20:08;10.23;;;3.03;;
54555;SDS011;57291;37.520;15.106;2023-07-31T11:22:36;12.07;;;3.72;;
54555;SDS011;57291;37.520;15.106;2023-07-31T11:25:03;5.55;;;2.88;;
54555;SDS011;57291;37.520;15.106;2023-07-31T11:27:31;6.35;;;3.30;;
54555;SDS011;57291;37.520;15.106;2023-07-31T11:30:05;10.00;;;3.30;;
54555;SDS011;57291;37.520;15.106;2023-07-31T11:32:35;6.47;;;2.92;;
54555;SDS011;57291;37.520;15.106;2023-07-31T11:35:03;8.38;;;3.08;;
54555;SDS011;57291;37.520;15.106;2023-07-31T11:37:41;9.07;;;2.80;;
54555;SDS011;57291;37.520;15.106;2023-07-31T11:40:10;6.78;;;3.28;;
54555;SDS011;57291;37.520;15.106;2023-07-31T11:42:37;5.03;;;2.75;;
54555;SDS011;57291;37.520;15.106;2023-07-31T11:45:05;7.28;;;3.03;;
54555;SDS011;57291;37.520;15.106;2023-07-31T11:47:34;10.23;;;3.50;;
54555;SDS011;57291;37.520;15.106;2023-07-31T11:50:04;7.43;;;3.33;;
54555;SDS011;57291;37.520;15.106;2023-07-31T11:52:37;8.32;;;3.40;;
54555;SDS011;57291;37.520;15.106;2023-07-31T11:55:10;9.35;;;3.28;;
54555;SDS011;57291;37.520;15.106;2023-07-31T11:57:38;7.35;;;2.97;;
54555;SDS011;57291;37.520;15.106;2023-07-31T12:00:09;5.95;;;2.47;;
54555;SDS011;57291;37.520;15.106;2023-07-31T12:02:39;10.15;;;2.95;;
54555;SDS011;57291;37.520;15.106;2023-07-31T12:05:11;6.82;;;2.80;;
54555;SDS011;57291;37.520;15.106;2023-07-31T12:07:56;8.57;;;3.05;;
54555;SDS011;57291;37.520;15.106;2023-07-31T12:10:31;6.80;;;3.97;;
54555;SDS011;57291;37.520;15.106;2023-07-31T12:13:03;7.95;;;3.22;;
54555;SDS011;57291;37.520;15.106;2023-07-31T12:15:47;6.30;;;3.28;;
54555;SDS011;57291;37.520;15.106;2023-07-31T12:18:16;9.90;;;3.05;;
54555;SDS011;57291;37.520;15.106;2023-07-31T12:20:47;5.65;;;2.90;;
54555;SDS011;57291;37.520;15.106;2023-07-31T12:23:20;6.78;;;2.78;;
54555;SDS011;57291;37.520;15.106;2023-07-31T12:26:04;5.50;;;2.80;;
54555;SDS011;57291;37.520;15.106;2023-07-31T12:28:45;13.45;;;3.15;;
54555;SDS011;57291;37.520;15.106;2023-07-31T12:31:20;6.07;;;2.58;;
54555;SDS011;57291;37.520;15.106;2023-07-31T12:33:50;5.97;;;2.80;;
54555;SDS011;57291;37.520;15.106;2023-07-31T12:36:20;6.40;;;3.40;;
54555;SDS011;57291;37.520;15.106;2023-07-31T12:38:52;6.47;;;2.47;;
54555;SDS011;57291;37.520;15.106;2023-07-31T12:41:20;7.70;;;3.28;;
54555;SDS011;57291;37.520;15.106;2023-07-31T12:43:47;6.95;;;3.10;;
54555;SDS011;57291;37.520;15.106;2023-07-31T12:46:14;12.30;;;3.00;;
54555;SDS011;57291;37.520;15.106;2023-07-31T12:48:42;6.80;;;3.10;;
54555;SDS011;57291;37.520;15.106;2023-07-31T12:51:10;10.18;;;3.33;;
54555;SDS011;57291;37.520;15.106;2023-07-31T12:53:37;7.75;;;3.40;;
54555;SDS011;57291;37.520;15.106;2023-07-31T12:56:04;8.68;;;3.65;;
54555;SDS011;57291;37.520;15.106;2023-07-31T12:58:31;12.40;;;3.85;;
54555;SDS011;57291;37.520;15.106;2023-07-31T13:00:58;6.65;;;3.55;;
54555;SDS011;57291;37.520;15.106;2023-07-31T13:03:26;7.82;;;3.42;;
54555;SDS011;57291;37.520;15.106;2023-07-31T13:05:53;8.05;;;3.90;;
54555;SDS011;57291;37.520;15.106;2023-07-31T13:08:21;9.68;;;4.00;;
54555;SDS011;57291;37.520;15.106;2023-07-31T13:10:48;12.25;;;4.05;;
54555;SDS011;57291;37.520;15.106;2023-07-31T13:13:15;10.90;;;3.80;;
54555;SDS011;57291;37.520;15.106;2023-07-31T13:15:44;9.55;;;3.60;;
54555;SDS011;57291;37.520;15.106;2023-07-31T13:18:12;10.20;;;3.78;;
54555;SDS011;57291;37.520;15.106;2023-07-31T13:20:39;11.70;;;3.70;;
54555;SDS011;57291;37.520;15.106;2023-07-31T13:23:06;8.98;;;4.03;;
54555;SDS011;57291;37.520;15.106;2023-07-31T13:25:33;7.30;;;3.72;;
54555;SDS011;57291;37.520;15.106;2023-07-31T13:28:01;7.85;;;3.55;;
54555;SDS011;57291;37.520;15.106;2023-07-31T13:30:29;10.32;;;3.15;;
54555;SDS011;57291;37.520;15.106;2023-07-31T13:32:56;12.27;;;3.67;;
54555;SDS011;57291;37.520;15.106;2023-07-31T13:35:24;8.13;;;3.05;;
54555;SDS011;57291;37.520;15.106;2023-07-31T13:37:51;8.95;;;3.30;;
54555;SDS011;57291;37.520;15.106;2023-07-31T13:40:18;9.13;;;3.10;;
54555;SDS011;57291;37.520;15.106;2023-07-31T13:42:45;7.65;;;3.20;;
54555;SDS011;57291;37.520;15.106;2023-07-31T13:45:14;5.78;;;2.63;;
54555;SDS011;57291;37.520;15.106;2023-07-31T13:47:41;8.88;;;3.78;;
54555;SDS011;57291;37.520;15.106;2023-07-31T13:50:09;10.10;;;3.20;;
54555;SDS011;57291;37.520;15.106;2023-07-31T13:52:36;9.15;;;3.42;;
54555;SDS011;57291;37.520;15.106;2023-07-31T13:55:03;8.43;;;3.40;;
54555;SDS011;57291;37.520;15.106;2023-07-31T13:57:31;7.60;;;3.50;;
54555;SDS011;57291;37.520;15.106;2023-07-31T13:59:58;7.38;;;3.25;;
54555;SDS011;57291;37.520;15.106;2023-07-31T14:02:25;8.23;;;3.30;;
54555;SDS011;57291;37.520;15.106;2023-07-31T14:04:52;9.52;;;3.60;;
54555;SDS011;57291;37.520;15.106;2023-07-31T14:07:20;10.70;;;3.25;;
54555;SDS011;57291;37.520;15.106;2023-07-31T14:09:47;6.68;;;2.88;;
54555;SDS011;57291;37.520;15.106;2023-07-31T14:12:14;7.90;;;2.90;;
54555;SDS011;57291;37.520;15.106;2023-07-31T14:15:02;7.93;;;3.30;;
54555;SDS011;57291;37.520;15.106;2023-07-31T14:17:29;6.80;;;2.80;;
54555;SDS011;57291;37.520;15.106;2023-07-31T14:19:57;7.65;;;2.88;;
54555;SDS011;57291;37.520;15.106;2023-07-31T14:22:31;6.88;;;2.67;;
54555;SDS011;57291;37.520;15.106;2023-07-31T14:25:00;9.65;;;2.95;;
54555;SDS011;57291;37.520;15.106;2023-07-31T14:27:28;5.25;;;2.47;;
54555;SDS011;57291;37.520;15.106;2023-07-31T14:29:55;5.38;;;2.47;;
54555;SDS011;57291;37.520;15.106;2023-07-31T14:32:23;8.75;;;2.80;;
54555;SDS011;57291;37.520;15.106;2023-07-31T14:34:58;6.43;;;2.53;;
54555;SDS011;57291;37.520;15.106;2023-07-31T14:37:26;6.00;;;2.45;;
54555;SDS011;57291;37.520;15.106;2023-07-31T14:39:54;7.00;;;2.55;;
54555;SDS011;57291;37.520;15.106;2023-07-31T14:42:22;5.65;;;2.65;;
54555;SDS011;57291;37.520;15.106;2023-07-31T14:44:50;8.25;;;2.28;;
54555;SDS011;57291;37.520;15.106;2023-07-31T14:47:17;10.45;;;2.80;;
54555;SDS011;57291;37.520;15.106;2023-07-31T14:49:44;7.68;;;2.38;;
54555;SDS011;57291;37.520;15.106;2023-07-31T14:52:11;5.00;;;2.25;;
54555;SDS011;57291;37.520;15.106;2023-07-31T14:54:38;5.40;;;2.63;;
54555;SDS011;57291;37.520;15.106;2023-07-31T14:57:05;6.43;;;2.75;;